Time;durP1;ratioP1;P1;durP2;ratioP2;P2;SDS_P1;SDS_P2;PMS_P1;PMS_P2;Temp;Humidity;BMP_temperature;BMP_pressure;BME280_temperature;BME280_humidity;BME280_pressure;Samples;Min_cycle;Max_cycle;Signal;HPM_P1;HPM_P2
2023/06/04 00:01:00;;;;;;;6.17;5.33;;;;;;;16.63;46.06;96188.38;4986245;28;20259;-66
2023/06/04 00:03:25;;;;;;;8.00;6.00;;;;;;;16.68;45.61;96189.75;4986306;28;20287;-68
2023/06/04 00:05:50;;;;;;;6.97;5.57;;;;;;;16.42;46.10;96190.78;4986383;28;20234;-68
2023/06/04 00:08:16;;;;;;;5.90;5.30;;;;;;;16.55;45.36;96190.72;4986087;28;20208;-68
2023/06/04 00:10:41;;;;;;;8.40;5.30;;;;;;;16.64;44.78;96182.13;4985995;28;20231;-67
2023/06/04 00:13:07;;;;;;;6.60;4.63;;;;;;;16.24;45.26;96180.50;4986229;28;20183;-68
2023/06/04 00:15:32;;;;;;;9.33;5.50;;;;;;;16.23;45.54;96189.41;4986019;28;20581;-67
2023/06/04 00:17:57;;;;;;;10.73;6.00;;;;;;;16.35;45.19;96186.84;4988774;28;20196;-68
2023/06/04 00:20:23;;;;;;;5.50;4.70;;;;;;;16.35;44.95;96185.06;4989835;28;20181;-65
2023/06/04 00:22:48;;;;;;;5.60;5.10;;;;;;;16.42;44.73;96188.97;4990018;28;20704;-65
2023/06/04 00:25:14;;;;;;;6.43;4.60;;;;;;;16.52;44.05;96184.69;4989434;28;20196;-67
2023/06/04 00:27:39;;;;;;;8.00;5.03;;;;;;;16.30;44.07;96182.72;4989960;28;20193;-68
2023/06/04 00:30:05;;;;;;;6.00;5.13;;;;;;;16.34;43.80;96179.84;4989552;28;20773;-68
2023/06/04 00:32:31;;;;;;;7.50;5.00;;;;;;;16.28;44.16;96184.63;4989682;28;20188;-66
2023/06/04 00:34:59;;;;;;;11.20;4.67;;;;;;;16.33;44.10;96184.31;4989314;28;20412;-66
2023/06/04 00:37:25;;;;;;;4.93;4.23;;;;;;;16.01;44.24;96181.25;4989621;28;20177;-68
2023/06/04 00:39:51;;;;;;;5.50;4.40;;;;;;;15.80;44.59;96191.50;4989207;28;20412;-67
2023/06/04 00:42:17;;;;;;;5.40;4.50;;;;;;;15.96;44.51;96188.66;4988198;28;20279;-66
2023/06/04 00:44:44;;;;;;;5.50;3.80;;;;;;;16.09;43.72;96186.88;4989115;28;20180;-66
2023/06/04 00:47:16;;;;;;;5.67;4.10;;;;;;;16.15;43.60;96180.28;4987971;28;20432;-67
2023/06/04 00:49:42;;;;;;;5.83;4.33;;;;;;;15.95;43.49;96184.34;4989236;28;20463;-68
2023/06/04 00:52:09;;;;;;;6.80;4.37;;;;;;;15.95;43.96;96182.53;4989220;28;20474;-67
2023/06/04 00:54:36;;;;;;;4.53;4.07;;;;;;;15.92;43.92;96189.81;4988795;28;21010;-67
2023/06/04 00:57:01;;;;;;;4.33;3.93;;;;;;;15.81;44.21;96187.91;4989198;28;20431;-68
2023/06/04 00:59:28;;;;;;;6.07;3.90;;;;;;;16.12;43.43;96186.66;4988945;28;20428;-66
2023/06/04 01:01:58;;;;;;;6.60;4.37;;;;;;;15.95;43.57;96195.75;4989208;28;20180;-66
2023/06/04 01:04:29;;;;;;;7.00;4.10;;;;;;;15.78;43.80;96194.28;4988879;28;20463;-68
2023/06/04 01:06:58;;;;;;;5.90;3.93;;;;;;;15.87;43.67;96203.34;4989114;28;20412;-66
2023/06/04 01:09:26;;;;;;;5.10;3.83;;;;;;;15.79;43.41;96190.66;4988900;28;20494;-68
2023/06/04 01:11:52;;;;;;;5.40;3.37;;;;;;;15.81;43.37;96204.63;4989097;28;20416;-65
2023/06/04 01:14:19;;;;;;;6.37;4.67;;;;;;;15.87;43.10;96196.28;4988452;28;20772;-66
2023/06/04 01:16:50;;;;;;;5.50;3.13;;;;;;;15.92;43.03;96190.69;4989666;28;20177;-66
2023/06/04 01:19:47;;;;;;;4.10;3.57;;;;;;;15.71;43.13;96198.28;4988688;28;20439;-67
2023/06/04 01:22:39;;;;;;;7.00;3.87;;;;;;;15.75;43.00;96194.47;4988808;28;20466;-68
2023/06/04 01:25:12;;;;;;;4.73;3.43;;;;;;;16.01;42.26;96199.78;4988019;28;20435;-66
2023/06/04 01:27:40;;;;;;;4.97;3.73;;;;;;;15.62;43.23;96204.16;4988494;28;20479;-67
2023/06/04 01:30:08;;;;;;;6.13;3.40;;;;;;;15.67;42.90;96196.75;4988790;28;20459;-67
2023/06/04 01:32:33;;;;;;;9.67;4.03;;;;;;;15.61;43.07;96199.81;4988679;28;20967;-67
2023/06/04 01:34:59;;;;;;;5.80;4.00;;;;;;;15.66;42.82;96197.69;4988448;28;20416;-66
2023/06/04 01:37:26;;;;;;;5.50;3.47;;;;;;;15.67;42.92;96202.06;4988670;28;20173;-65
2023/06/04 01:39:51;;;;;;;3.70;3.00;;;;;;;15.68;42.84;96201.09;4988654;28;20419;-67
2023/06/04 01:42:17;;;;;;;4.33;3.13;;;;;;;15.59;42.70;96199.06;4988528;28;20415;-67
2023/06/04 01:44:42;;;;;;;8.57;3.77;;;;;;;15.42;43.14;96201.03;4988140;28;20185;-67
2023/06/04 01:47:07;;;;;;;4.73;3.40;;;;;;;15.37;43.37;96207.59;4988295;28;20780;-66
2023/06/04 01:49:33;;;;;;;4.13;3.37;;;;;;;15.47;43.13;96195.44;4988190;28;20224;-67
2023/06/04 01:51:58;;;;;;;6.47;3.50;;;;;;;15.68;42.67;96195.78;4997442;28;20282;-67
2023/06/04 01:54:23;;;;;;;4.40;2.93;;;;;;;15.53;42.63;96194.19;5001669;28;20204;-68
2023/06/04 01:56:49;;;;;;;8.10;3.70;;;;;;;15.54;42.94;96190.59;4998875;28;20173;-66
2023/06/04 01:59:16;;;;;;;9.27;3.70;;;;;;;15.64;42.46;96187.22;4995499;28;20201;-66
2023/06/04 02:01:41;;;;;;;6.57;3.87;;;;;;;15.72;42.50;96196.47;4994031;28;20267;-68
2023/06/04 02:04:07;;;;;;;8.23;3.40;;;;;;;15.53;42.81;96194.19;4990330;28;20539;-69
2023/06/04 02:06:32;;;;;;;8.37;3.20;;;;;;;15.66;42.23;96192.41;4988801;28;20263;-66
2023/06/04 02:08:57;;;;;;;12.63;4.50;;;;;;;15.57;42.85;96188.59;4987737;28;20209;-66
2023/06/04 02:11:23;;;;;;;7.67;3.30;;;;;;;15.68;42.28;96201.09;4988038;28;20733;-67
2023/06/04 02:13:48;;;;;;;7.80;4.10;;;;;;;15.62;42.26;96190.94;4987407;28;20204;-67
2023/06/04 02:16:14;;;;;;;10.17;3.53;;;;;;;15.33;42.50;96195.50;4987918;28;20223;-67
2023/06/04 02:18:39;;;;;;;12.60;3.93;;;;;;;15.24;43.09;96191.69;4987607;28;20670;-66
2023/06/04 02:21:05;;;;;;;7.13;3.43;;;;;;;15.60;42.16;96190.19;4987249;28;20184;-67
2023/06/04 02:23:30;;;;;;;5.60;3.17;;;;;;;15.42;42.36;96198.38;4987155;28;20231;-66
2023/06/04 02:25:56;;;;;;;14.43;3.50;;;;;;;15.34;42.69;96200.69;4987613;28;20720;-66
2023/06/04 02:28:21;;;;;;;9.90;3.50;;;;;;;15.57;41.74;96190.41;4987194;28;20667;-67
2023/06/04 02:30:46;;;;;;;5.30;2.40;;;;;;;15.54;41.83;96190.59;4987266;28;20234;-66
2023/06/04 02:33:13;;;;;;;10.10;3.43;;;;;;;15.35;41.86;96191.81;4987337;28;20177;-68
2023/06/04 02:35:38;;;;;;;24.67;6.70;;;;;;;15.53;41.91;96195.03;4985842;28;20202;-68
2023/06/04 02:38:04;;;;;;;7.67;2.90;;;;;;;15.34;41.96;96200.69;4987479;28;20443;-69
2023/06/04 02:40:30;;;;;;;3.90;2.50;;;;;;;15.55;41.58;96205.53;4986490;28;20222;-68
2023/06/04 02:42:56;;;;;;;31.33;5.50;;;;;;;15.52;41.50;96200.41;4987096;28;20458;-67
2023/06/04 02:45:22;;;;;;;13.50;3.53;;;;;;;15.40;42.01;96200.31;4987005;28;20188;-68
2023/06/04 02:47:47;;;;;;;8.17;4.60;;;;;;;15.50;41.72;96191.75;4986983;28;20196;-67
2023/06/04 02:50:15;;;;;;;14.13;3.60;;;;;;;15.46;41.51;96194.59;4987147;28;20467;-66
2023/06/04 02:52:40;;;;;;;5.87;3.17;;;;;;;15.23;41.96;96198.75;4987169;28;20179;-68
2023/06/04 02:55:08;;;;;;;18.93;5.03;;;;;;;15.25;42.28;96194.22;4986910;28;20808;-67
2023/06/04 02:57:34;;;;;;;8.63;3.90;;;;;;;15.16;42.35;96194.81;4986910;28;20316;-65
2023/06/04 03:00:01;;;;;;;7.20;3.20;;;;;;;14.98;42.96;96202.16;4986894;28;20412;-65
2023/06/04 03:02:27;;;;;;;22.70;4.27;;;;;;;15.30;42.33;96195.72;4986918;28;20424;-68
2023/06/04 03:04:54;;;;;;;6.13;2.93;;;;;;;15.11;42.43;96210.13;4986877;28;20984;-67
2023/06/04 03:07:22;;;;;;;9.10;3.30;;;;;;;15.13;42.90;96204.75;4987400;28;20443;-68
2023/06/04 03:09:48;;;;;;;4.87;2.70;;;;;;;15.30;42.25;96206.28;4987000;28;20456;-67
2023/06/04 03:12:13;;;;;;;7.73;3.40;;;;;;;15.27;42.19;96214.44;4987211;28;20419;-65
2023/06/04 03:14:39;;;;;;;3.43;2.70;;;;;;;15.20;42.31;96219.28;4986697;28;20708;-68
2023/06/04 03:17:10;;;;;;;34.87;6.03;;;;;;;15.17;42.60;96222.13;4986780;28;20181;-67
2023/06/04 03:19:37;;;;;;;34.50;6.27;;;;;;;15.32;41.74;96215.81;4986934;28;20201;-65
2023/06/04 03:22:05;;;;;;;29.00;4.90;;;;;;;15.31;41.94;96222.06;4986925;28;20423;-66
2023/06/04 03:24:34;;;;;;;11.00;3.33;;;;;;;15.36;41.91;96229.69;4986380;28;20408;-67
2023/06/04 03:27:00;;;;;;;17.47;4.03;;;;;;;15.42;41.75;96219.53;4986674;28;20849;-66
2023/06/04 03:29:25;;;;;;;8.03;2.87;;;;;;;15.37;42.06;96231.38;4986667;28;20543;-67
2023/06/04 03:31:51;;;;;;;10.40;2.90;;;;;;;15.39;42.12;96222.41;4986582;28;20223;-67
2023/06/04 03:34:16;;;;;;;5.90;2.90;;;;;;;15.47;41.91;96229.81;4986404;28;20212;-67
2023/06/04 03:36:42;;;;;;;4.47;2.73;;;;;;;15.34;42.32;96229.78;4986543;28;20203;-67
2023/06/04 03:39:07;;;;;;;3.60;2.73;;;;;;;15.39;42.28;96234.78;4986598;28;20235;-67
2023/06/04 03:41:32;;;;;;;30.73;5.40;;;;;;;15.38;42.79;96228.66;4986646;28;20234;-66
2023/06/04 03:43:58;;;;;;;29.90;6.90;;;;;;;15.57;42.22;96232.72;4986361;28;20176;-66
2023/06/04 03:46:26;;;;;;;27.57;4.43;;;;;;;15.77;41.88;96223.47;4986553;28;20173;-67
2023/06/04 03:48:51;;;;;;;88.83;9.93;;;;;;;15.67;42.28;96228.50;4986199;28;20216;-69
2023/06/04 03:51:17;;;;;;;5.83;2.90;;;;;;;15.74;41.21;96228.97;4988096;28;20470;-66
2023/06/04 03:53:42;;;;;;;29.43;4.60;;;;;;;15.77;41.69;96234.06;4990245;28;20204;-68
2023/06/04 03:56:07;;;;;;;6.77;2.57;;;;;;;15.82;41.11;96232.78;4990878;28;20202;-68
2023/06/04 03:58:35;;;;;;;11.50;3.60;;;;;;;15.74;41.66;96224.53;4990409;28;20199;-65
2023/06/04 04:01:01;;;;;;;11.10;2.87;;;;;;;16.11;40.69;96232.63;4990138;28;20211;-68
2023/06/04 04:03:30;;;;;;;9.83;3.30;;;;;;;16.12;41.05;96226.34;4989990;28;20408;-68
2023/06/04 04:05:56;;;;;;;14.30;3.87;;;;;;;16.09;41.25;96231.88;4990038;28;20426;-67
2023/06/04 04:08:22;;;;;;;12.70;3.93;;;;;;;16.14;41.12;96232.41;4990077;28;20463;-67
2023/06/04 04:10:47;;;;;;;7.10;2.70;;;;;;;16.27;40.82;96233.22;4990136;28;20212;-67
2023/06/04 04:13:13;;;;;;;10.33;3.17;;;;;;;16.13;40.87;96235.97;4990150;28;20250;-66
2023/06/04 04:15:38;;;;;;;9.30;3.20;;;;;;;16.39;40.32;96231.53;4989937;28;20213;-66
2023/06/04 04:18:03;;;;;;;18.60;3.80;;;;;;;16.31;41.13;96239.16;4990292;28;20670;-66
2023/06/04 04:20:29;;;;;;;3.03;2.37;;;;;;;16.29;40.64;96236.63;4989714;28;20172;-68
2023/06/04 04:22:54;;;;;;;14.60;4.27;;;;;;;16.68;39.85;96240.09;4989678;28;20191;-67
2023/06/04 04:25:20;;;;;;;10.70;4.00;;;;;;;16.26;40.55;96246.59;4989615;28;20630;-66
2023/06/04 04:27:48;;;;;;;8.03;3.47;;;;;;;16.65;40.29;96242.97;4989649;28;20247;-68
2023/06/04 04:30:14;;;;;;;6.30;2.70;;;;;;;16.86;39.49;96250.38;4989558;28;20209;-67
2023/06/04 04:32:48;;;;;;;3.53;2.50;;;;;;;16.87;39.56;96254.72;4989398;28;20903;-66
2023/06/04 04:35:14;;;;;;;8.33;2.70;;;;;;;16.80;38.94;96254.31;4989111;28;20172;-66
2023/06/04 04:37:40;;;;;;;4.73;2.83;;;;;;;16.82;39.45;96256.84;4989571;28;20424;-67
2023/06/04 04:40:11;;;;;;;3.37;2.63;;;;;;;17.08;39.29;96252.34;4989102;28;21149;-66
2023/06/04 04:42:37;;;;;;;5.73;2.60;;;;;;;17.17;38.46;96250.81;4989193;28;20181;-68
2023/06/04 04:45:03;;;;;;;4.60;2.80;;;;;;;17.09;38.92;96265.47;4989359;28;20415;-65
2023/06/04 04:47:28;;;;;;;8.17;3.00;;;;;;;17.07;38.64;96263.88;4989726;28;20172;-67
2023/06/04 04:49:54;;;;;;;8.93;2.67;;;;;;;16.91;38.94;96269.44;4989694;28;20232;-67
2023/06/04 04:52:19;;;;;;;5.00;2.70;;;;;;;17.19;38.56;96263.00;4989785;28;20247;-66
2023/06/04 04:54:44;;;;;;;10.83;3.10;;;;;;;17.41;38.11;96272.91;4988978;28;20534;-66
2023/06/04 04:57:10;;;;;;;6.40;2.70;;;;;;;17.72;37.90;96271.47;4989337;28;20168;-67
2023/06/04 04:59:35;;;;;;;6.10;2.90;;;;;;;17.26;38.48;96268.69;4989279;28;20909;-67
2023/06/04 05:02:01;;;;;;;8.27;3.00;;;;;;;17.42;38.46;96263.13;4989004;28;20181;-67
2023/06/04 05:04:26;;;;;;;3.77;2.90;;;;;;;16.50;39.94;96270.53;4988165;28;20177;-66
2023/06/04 05:06:51;;;;;;;8.97;3.03;;;;;;;17.08;39.08;96265.59;4989120;28;20209;-66
2023/06/04 05:09:17;;;;;;;4.00;2.53;;;;;;;17.41;38.23;96267.59;4988793;28;20287;-66
2023/06/04 05:11:42;;;;;;;3.63;3.00;;;;;;;17.13;38.64;96271.41;4989028;28;20242;-67
2023/06/04 05:14:07;;;;;;;4.70;2.93;;;;;;;17.32;38.17;96277.06;4988596;28;20173;-67
2023/06/04 05:16:35;;;;;;;3.37;2.90;;;;;;;17.29;38.28;96276.44;4990307;28;20245;-67
2023/06/04 05:19:01;;;;;;;3.73;2.90;;;;;;;17.52;38.03;96278.25;4988681;28;20531;-67
2023/06/04 05:21:28;;;;;;;4.23;2.40;;;;;;;17.38;38.07;96283.72;4988788;28;20591;-67
2023/06/04 05:23:54;;;;;;;4.00;2.60;;;;;;;17.32;38.46;96297.44;4988506;28;20432;-67
2023/06/04 05:26:23;;;;;;;5.07;2.40;;;;;;;17.25;38.49;96294.38;4989001;28;20486;-66
2023/06/04 05:28:49;;;;;;;5.10;2.93;;;;;;;17.18;38.51;96295.78;4988792;28;20220;-66
2023/06/04 05:31:15;;;;;;;4.77;3.03;;;;;;;17.06;38.58;96296.66;4988633;28;20408;-67
2023/06/04 05:33:41;;;;;;;5.40;2.93;;;;;;;17.07;38.59;96296.53;4986690;28;20458;-67
2023/06/04 05:36:06;;;;;;;18.30;3.73;;;;;;;17.49;38.14;96304.16;4988961;28;20420;-68
2023/06/04 05:38:32;;;;;;;7.10;3.33;;;;;;;17.34;38.40;96309.63;4989479;28;20196;-66
2023/06/04 05:40:58;;;;;;;4.30;2.77;;;;;;;16.91;38.94;96310.06;4989177;28;20176;-65
2023/06/04 05:43:23;;;;;;;21.77;4.83;;;;;;;17.07;39.15;96316.91;4988853;28;20181;-66
2023/06/04 05:45:49;;;;;;;10.63;2.90;;;;;;;17.22;38.92;96312.31;4988903;28;20181;-66
2023/06/04 05:48:14;;;;;;;3.60;2.70;;;;;;;16.77;40.12;96312.81;4988940;28;20568;-66
2023/06/04 05:50:40;;;;;;;6.30;3.10;;;;;;;17.23;38.77;96312.22;4988450;28;20185;-67
2023/06/04 05:53:05;;;;;;;7.03;3.33;;;;;;;17.39;38.54;96311.97;4988489;28;20169;-66
2023/06/04 05:55:31;;;;;;;12.60;3.10;;;;;;;17.34;38.23;96308.78;4988094;28;20785;-66
2023/06/04 05:57:56;;;;;;;6.50;2.70;;;;;;;17.57;38.62;96309.75;4988868;28;20660;-66
2023/06/04 06:00:22;;;;;;;7.50;3.20;;;;;;;17.69;38.24;96313.31;5003738;28;20173;-68
2023/06/04 06:02:49;;;;;;;8.20;3.13;;;;;;;18.09;37.52;96315.69;5003212;28;20244;-65
2023/06/04 06:05:15;;;;;;;5.13;2.80;;;;;;;17.64;37.94;96311.00;4996306;28;20172;-65
2023/06/04 06:07:41;;;;;;;8.43;2.97;;;;;;;17.07;38.98;96330.16;4992614;28;20473;-65
2023/06/04 06:10:07;;;;;;;7.70;3.50;;;;;;;16.81;39.62;96321.41;4991463;28;20475;-66
2023/06/04 06:12:32;;;;;;;4.93;2.60;;;;;;;16.85;39.82;96325.53;4987781;28;20176;-64
2023/06/04 06:14:58;;;;;;;4.40;3.27;;;;;;;16.69;40.92;96326.56;4986845;28;20407;-66
2023/06/04 06:17:23;;;;;;;3.77;2.70;;;;;;;17.17;40.51;96325.06;4987683;28;20169;-68
2023/06/04 06:19:49;;;;;;;6.20;3.67;;;;;;;16.88;40.06;96331.47;4987651;28;20276;-67
2023/06/04 06:22:15;;;;;;;5.20;3.10;;;;;;;17.13;40.26;96330.59;4987756;28;20243;-65
2023/06/04 06:24:40;;;;;;;8.43;2.73;;;;;;;17.25;39.68;96330.66;4987802;28;20271;-68
2023/06/04 06:27:06;;;;;;;8.53;2.77;;;;;;;17.41;39.55;96330.41;4988030;28;20712;-66
2023/06/04 06:29:32;;;;;;;3.80;3.00;;;;;;;18.06;38.61;96321.22;4987672;28;20837;-68
2023/06/04 06:31:57;;;;;;;4.80;2.90;;;;;;;17.60;39.20;96325.47;4986535;28;20507;-67
2023/06/04 06:34:23;;;;;;;6.37;3.90;;;;;;;17.61;39.27;96321.00;4987344;28;20177;-67
2023/06/04 06:36:49;;;;;;;9.33;3.20;;;;;;;17.62;39.61;96322.69;4987721;28;20192;-68
2023/06/04 06:39:15;;;;;;;5.00;3.37;;;;;;;18.12;39.34;96323.44;4987183;28;20185;-67
2023/06/04 06:41:41;;;;;;;4.53;3.20;;;;;;;17.83;39.25;96329.09;4987341;28;20416;-68
2023/06/04 06:44:06;;;;;;;9.87;3.93;;;;;;;17.99;39.48;96323.50;4987473;28;20920;-67
2023/06/04 06:46:32;;;;;;;6.20;3.40;;;;;;;18.16;38.61;96332.84;4987648;28;20195;-67
2023/06/04 06:48:57;;;;;;;4.17;3.20;;;;;;;17.84;39.81;96333.44;4987391;28;20680;-66
2023/06/04 06:51:23;;;;;;;7.60;3.57;;;;;;;17.88;39.17;96339.38;4987708;28;20704;-68
2023/06/04 06:53:51;;;;;;;6.37;3.53;;;;;;;17.68;39.89;96324.91;4987439;28;20639;-68
2023/06/04 06:56:18;;;;;;;5.80;3.27;;;;;;;17.71;40.35;96338.78;4988495;28;20177;-68
2023/06/04 06:58:44;;;;;;;7.00;3.93;;;;;;;18.08;39.85;96330.78;4987805;28;20493;-66
2023/06/04 07:01:09;;;;;;;6.40;3.80;;;;;;;18.58;38.65;96334.03;4987526;28;20559;-66
2023/06/04 07:03:34;;;;;;;5.70;3.80;;;;;;;18.59;38.83;96333.09;4987002;28;20487;-66
2023/06/04 07:06:00;;;;;;;4.53;3.90;;;;;;;18.36;40.01;96332.19;4986907;28;20638;-66
2023/06/04 07:08:25;;;;;;;6.37;3.43;;;;;;;18.58;39.57;96333.19;4987497;28;20196;-66
2023/06/04 07:10:51;;;;;;;11.43;3.80;;;;;;;18.90;38.96;96319.22;4988143;28;20199;-66
2023/06/04 07:13:16;;;;;;;3.43;2.73;;;;;;;19.21;38.53;96329.16;4987621;28;20168;-66
2023/06/04 07:15:42;;;;;;;8.93;3.73;;;;;;;19.06;38.78;96327.69;4987457;28;20215;-66
2023/06/04 07:18:07;;;;;;;3.70;3.20;;;;;;;18.88;39.34;96316.72;4987792;28;20197;-67
2023/06/04 07:20:33;;;;;;;10.90;4.17;;;;;;;18.67;39.81;96327.19;4988034;28;20177;-67
2023/06/04 07:22:58;;;;;;;6.60;3.73;;;;;;;18.52;39.93;96328.34;4986617;28;20181;-68
2023/06/04 07:25:25;;;;;;;5.00;3.70;;;;;;;19.03;39.46;96330.59;4986101;28;20259;-68
2023/06/04 07:27:50;;;;;;;8.07;3.40;;;;;;;19.02;38.68;96331.59;4986416;28;20224;-69
2023/06/04 07:30:16;;;;;;;8.07;3.73;;;;;;;19.15;38.73;96326.13;4986527;28;20514;-67
2023/06/04 07:32:46;;;;;;;8.30;4.20;;;;;;;19.31;38.79;96336.41;4986481;28;20177;-68
2023/06/04 07:35:11;;;;;;;10.53;4.03;;;;;;;19.79;38.00;96331.59;4986401;28;20173;-68
2023/06/04 07:37:37;;;;;;;7.40;3.63;;;;;;;20.07;37.65;96327.50;4986310;28;20965;-68
2023/06/04 07:40:03;;;;;;;10.63;3.90;;;;;;;20.49;36.60;96330.19;4986419;28;20161;-68
2023/06/04 07:42:28;;;;;;;6.20;4.03;;;;;;;20.40;36.54;96332.81;4986068;28;20188;-67
2023/06/04 07:44:54;;;;;;;5.50;3.63;;;;;;;20.44;36.70;96326.25;4986036;28;20404;-68
2023/06/04 07:47:20;;;;;;;5.50;3.80;;;;;;;20.36;37.19;96323.38;4986466;28;20173;-66
2023/06/04 07:49:45;;;;;;;7.43;4.30;;;;;;;20.12;37.46;96320.94;4986428;28;20765;-67
2023/06/04 07:52:11;;;;;;;6.87;4.63;;;;;;;20.02;37.78;96316.38;4986211;28;20415;-67
2023/06/04 07:54:37;;;;;;;4.73;3.73;;;;;;;20.08;37.62;96323.88;4986068;28;20173;-66
2023/06/04 07:57:02;;;;;;;6.43;4.20;;;;;;;19.73;38.32;96324.13;4986201;28;20180;-69
2023/06/04 07:59:29;;;;;;;7.73;4.17;;;;;;;20.05;38.20;96329.44;4986091;28;20766;-68
2023/06/04 08:01:54;;;;;;;8.00;4.50;;;;;;;20.02;38.09;96321.72;4986184;28;20212;-68
2023/06/04 08:04:20;;;;;;;4.50;3.70;;;;;;;20.73;36.43;96313.13;4985806;28;20475;-69
2023/06/04 08:06:46;;;;;;;8.63;4.27;;;;;;;20.77;36.82;96324.38;4986312;28;20263;-68
2023/06/04 08:09:12;;;;;;;5.87;3.67;;;;;;;21.00;36.80;96317.91;4986367;28;20232;-70
2023/06/04 08:11:41;;;;;;;6.13;4.00;;;;;;;21.04;36.34;96313.97;4986182;28;20418;-67
2023/06/04 08:14:07;;;;;;;9.23;4.40;;;;;;;20.80;36.21;96316.94;4985967;28;20455;-69
2023/06/04 08:16:32;;;;;;;6.50;5.07;;;;;;;20.97;36.58;96307.47;4986247;28;21145;-67
2023/06/04 08:18:58;;;;;;;10.30;4.10;;;;;;;20.83;37.03;96306.00;4986017;28;20242;-69
2023/06/04 08:21:27;;;;;;;6.90;4.40;;;;;;;20.99;37.18;96307.34;4985917;28;20246;-69
2023/06/04 08:23:53;;;;;;;9.27;3.97;;;;;;;21.52;35.88;96297.31;4986119;28;20173;-67
2023/06/04 08:26:19;;;;;;;7.83;3.63;;;;;;;21.87;35.54;96300.41;4986027;28;20435;-69
2023/06/04 08:28:47;;;;;;;8.60;3.87;;;;;;;21.92;35.17;96311.53;4984114;28;20293;-67
2023/06/04 08:31:13;;;;;;;4.57;4.07;;;;;;;21.82;34.93;96302.66;4985862;28;20412;-68
2023/06/04 08:33:38;;;;;;;5.97;3.97;;;;;;;21.44;35.64;96309.63;4985279;28;20917;-67
2023/06/04 08:36:04;;;;;;;11.90;4.73;;;;;;;21.31;35.20;96310.69;4985423;28;20208;-67
2023/06/04 08:38:30;;;;;;;10.60;4.20;;;;;;;21.38;36.44;96305.66;4987151;28;20229;-68
2023/06/04 08:41:01;;;;;;;4.73;3.73;;;;;;;21.12;37.28;96306.16;4988870;28;20463;-68
2023/06/04 08:43:29;;;;;;;5.20;3.50;;;;;;;20.98;37.50;96308.34;4988882;28;20169;-67
2023/06/04 08:46:01;;;;;;;11.07;5.20;;;;;;;21.50;36.18;96303.75;4989152;28;20422;-68
2023/06/04 08:48:28;;;;;;;4.97;3.53;;;;;;;;;;4988918;28;20440;-68
2023/06/04 08:50:57;;;;;;;5.80;4.57;;;;;;;21.18;35.99;96310.09;4989377;28;20548;-67
2023/06/04 08:53:23;;;;;;;5.40;4.00;;;;;;;21.71;35.73;96312.50;4988964;28;21015;-68
2023/06/04 08:55:50;;;;;;;6.37;4.40;;;;;;;21.83;35.09;96305.22;4989039;28;20440;-67
2023/06/04 08:58:17;;;;;;;9.07;4.50;;;;;;;22.18;34.72;96301.13;4988979;28;20432;-68
2023/06/04 09:00:42;;;;;;;8.23;4.17;;;;;;;21.91;34.71;96312.53;4988986;28;20423;-68
2023/06/04 09:03:08;;;;;;;5.60;4.10;;;;;;;22.04;34.72;96305.09;4988558;28;20408;-69
2023/06/04 09:05:35;;;;;;;5.93;4.40;;;;;;;22.31;34.67;96301.72;4988496;28;20173;-67
2023/06/04 09:08:04;;;;;;;5.40;3.73;;;;;;;22.21;34.67;96308.06;4988197;28;20215;-68
2023/06/04 09:10:31;;;;;;;7.03;4.40;;;;;;;21.75;35.27;96308.56;4988774;28;20813;-66
2023/06/04 09:13:02;;;;;;;6.70;4.10;;;;;;;21.44;35.51;96314.97;4988303;28;20546;-68
2023/06/04 09:15:27;;;;;;;11.20;4.17;;;;;;;21.43;35.49;96315.97;4988227;28;20490;-67
2023/06/04 09:17:53;;;;;;;4.57;3.30;;;;;;;21.95;35.05;96316.63;4988445;28;20479;-69
2023/06/04 09:20:22;;;;;;;8.03;4.40;;;;;;;21.82;35.09;96314.19;4988436;28;20176;-69
2023/06/04 09:22:48;;;;;;;7.53;4.40;;;;;;;21.91;35.12;96308.03;4988243;28;20267;-68
2023/06/04 09:25:27;;;;;;;6.23;4.27;;;;;;;22.28;34.68;96311.88;4988074;28;20492;-69
2023/06/04 09:27:55;;;;;;;5.67;3.90;;;;;;;22.60;33.94;96315.03;4988066;28;20201;-67
2023/06/04 09:30:21;;;;;;;5.53;4.47;;;;;;;22.70;33.49;96314.16;4987988;28;20474;-67
2023/06/04 09:32:47;;;;;;;6.30;4.60;;;;;;;22.57;33.67;96317.16;4988282;28;20416;-67
2023/06/04 09:35:14;;;;;;;6.03;3.60;;;;;;;22.40;34.50;96318.75;4988245;28;20509;-68
2023/06/04 09:37:51;;;;;;;5.70;4.27;;;;;;;21.96;34.66;96312.94;4989413;28;20271;-67
2023/06/04 09:40:17;;;;;;;8.60;4.27;;;;;;;22.47;34.50;96303.81;4988879;28;20404;-67
2023/06/04 09:42:49;;;;;;;5.97;4.67;;;;;;;22.77;34.60;96302.75;4988978;28;20420;-66
2023/06/04 09:45:26;;;;;;;4.47;4.03;;;;;;;22.96;34.10;96301.00;4988895;28;20191;-67
2023/06/04 09:47:52;;;;;;;6.30;4.40;;;;;;;22.64;34.99;96298.72;4989600;28;20444;-67
2023/06/04 09:50:36;;;;;;;7.83;3.83;;;;;;;22.69;34.44;96297.28;4988547;28;20459;-66
2023/06/04 09:53:22;;;;;;;7.17;4.97;;;;;;;22.65;34.10;96300.38;4989115;28;20207;-67
2023/06/04 09:56:03;;;;;;;15.13;4.70;;;;;;;22.53;34.40;96300.53;4989523;28;20867;-68
2023/06/04 09:58:29;;;;;;;6.83;4.30;;;;;;;22.35;34.65;96300.44;4988619;28;21302;-66
2023/06/04 10:00:57;;;;;;;5.47;3.70;;;;;;;22.42;34.30;96292.72;4991544;28;20416;-66
2023/06/04 10:03:25;;;;;;;5.80;4.40;;;;;;;22.74;34.06;96292.34;4988740;28;20214;-67
2023/06/04 10:05:53;;;;;;;5.63;4.23;;;;;;;22.87;33.04;96286.69;4988252;28;20420;-67
2023/06/04 10:08:22;;;;;;;10.17;4.67;;;;;;;22.92;32.60;96289.75;4987510;28;20484;-68
2023/06/04 10:10:52;;;;;;;4.67;3.50;;;;;;;22.78;32.99;96288.38;4987686;28;20408;-67
2023/06/04 10:13:18;;;;;;;12.17;4.53;;;;;;;23.07;32.27;96291.97;4987426;28;20497;-67
2023/06/04 10:15:45;;;;;;;6.93;4.40;;;;;;;23.19;31.98;96296.16;4987662;28;20785;-68
2023/06/04 10:18:11;;;;;;;5.70;3.93;;;;;;;22.65;33.01;96295.88;4987390;28;21020;-68
2023/06/04 10:20:38;;;;;;;9.90;4.50;;;;;;;22.83;33.36;96299.50;4987854;28;20474;-67
2023/06/04 10:23:04;;;;;;;7.77;4.00;;;;;;;22.92;32.72;96287.06;4987369;28;20578;-67
2023/06/04 10:25:30;;;;;;;7.33;4.63;;;;;;;22.40;33.76;96292.00;4988262;28;20431;-67
2023/06/04 10:27:56;;;;;;;5.80;4.10;;;;;;;22.53;33.75;96286.34;4998498;28;20585;-65
2023/06/04 10:30:21;;;;;;;5.07;4.00;;;;;;;22.73;33.23;96292.50;4996573;28;20460;-67
2023/06/04 10:32:47;;;;;;;6.50;4.53;;;;;;;22.49;33.62;96284.94;4991394;28;20416;-66
2023/06/04 10:35:14;;;;;;;5.23;3.90;;;;;;;22.99;33.28;96293.56;4990040;28;20179;-67
2023/06/04 10:37:39;;;;;;;5.17;4.40;;;;;;;23.12;32.60;96295.88;4988471;28;20205;-68
2023/06/04 10:40:06;;;;;;;7.57;5.17;;;;;;;22.78;32.62;96284.88;4987208;28;20998;-67
2023/06/04 10:42:42;;;;;;;7.40;4.33;;;;;;;22.57;32.78;96287.75;4987061;28;20215;-67
2023/06/04 10:45:09;;;;;;;8.60;5.53;;;;;;;22.47;33.47;96294.97;4986635;28;20439;-68
2023/06/04 10:47:37;;;;;;;8.73;5.03;;;;;;;22.61;32.55;96287.31;4986742;28;20419;-67
2023/06/04 10:50:09;;;;;;;5.90;5.23;;;;;;;22.34;32.06;96292.56;4986409;28;20492;-67
2023/06/04 10:52:35;;;;;;;6.03;4.73;;;;;;;22.34;33.13;96285.38;4986590;28;20526;-67
2023/06/04 10:55:08;;;;;;;11.03;4.90;;;;;;;22.80;32.67;96282.91;4986381;28;20412;-69
2023/06/04 10:57:33;;;;;;;14.83;5.10;;;;;;;22.88;32.36;96296.38;4986590;28;20173;-68
2023/06/04 11:00:00;;;;;;;4.53;4.10;;;;;;;22.52;32.98;96285.50;4986344;28;20407;-68
2023/06/04 11:02:26;;;;;;;6.17;5.10;;;;;;;22.26;32.69;96300.47;4986061;28;20209;-67
2023/06/04 11:05:18;;;;;;;10.30;5.27;;;;;;;22.73;32.44;96289.81;4986376;28;20982;-69
2023/06/04 11:07:47;;;;;;;6.47;5.43;;;;;;;22.98;31.40;96285.63;4966783;28;20209;-69
2023/06/04 11:10:13;;;;;;;6.70;5.43;;;;;;;22.75;31.83;96295.88;4967247;28;20464;-67
2023/06/04 11:12:43;;;;;;;6.67;4.93;;;;;;;23.09;31.60;96290.00;4967003;28;20882;-68
2023/06/04 11:15:08;;;;;;;10.30;4.80;;;;;;;23.06;31.61;96287.63;4966734;28;20416;-69
2023/06/04 11:17:34;;;;;;;9.33;5.47;;;;;;;22.92;31.78;96295.09;4966911;28;20412;-66
2023/06/04 11:20:00;;;;;;;8.60;5.77;;;;;;;22.83;31.91;96282.59;4967199;28;20228;-67
2023/06/04 11:22:25;;;;;;;7.50;5.43;;;;;;;22.99;31.43;96284.69;4967231;28;20217;-68
2023/06/04 11:24:58;;;;;;;14.63;7.63;;;;;;;23.08;30.91;96280.28;4966544;28;20452;-67
2023/06/04 11:27:24;;;;;;;8.13;4.97;;;;;;;23.38;30.31;96274.63;4967180;28;20200;-67
2023/06/04 11:29:52;;;;;;;6.63;5.60;;;;;;;23.19;31.31;96280.91;4967349;28;20912;-66